sensor_id;sensor_type;location;lat;lon;timestamp;P1;durP1;ratioP1;P2;durP2;ratioP2
60368;SDS011;46208;44.634;10.492;2023-01-10T00:01:42;1.08;;;0.90;;
60368;SDS011;46208;44.634;10.492;2023-01-10T00:04:45;0.82;;;0.82;;
60368;SDS011;46208;44.634;10.492;2023-01-10T00:07:49;1.48;;;1.27;;
60368;SDS011;46208;44.634;10.492;2023-01-10T00:10:52;0.70;;;0.70;;
60368;SDS011;46208;44.634;10.492;2023-01-10T00:13:55;1.02;;;0.82;;
60368;SDS011;46208;44.634;10.492;2023-01-10T00:16:59;1.10;;;1.08;;
60368;SDS011;46208;44.634;10.492;2023-01-10T00:20:03;0.60;;;0.60;;
60368;SDS011;46208;44.634;10.492;2023-01-10T00:23:07;0.63;;;0.60;;
60368;SDS011;46208;44.634;10.492;2023-01-10T00:26:10;1.38;;;0.93;;
60368;SDS011;46208;44.634;10.492;2023-01-10T00:29:14;0.50;;;0.50;;
60368;SDS011;46208;44.634;10.492;2023-01-10T00:32:17;0.30;;;0.30;;
60368;SDS011;46208;44.634;10.492;2023-01-10T00:35:21;1.05;;;0.82;;
60368;SDS011;46208;44.634;10.492;2023-01-10T00:38:24;0.30;;;0.30;;
60368;SDS011;46208;44.634;10.492;2023-01-10T00:41:27;2.58;;;0.80;;
60368;SDS011;46208;44.634;10.492;2023-01-10T00:44:51;0.40;;;0.40;;
60368;SDS011;46208;44.634;10.492;2023-01-10T00:47:54;0.55;;;0.55;;
60368;SDS011;46208;44.634;10.492;2023-01-10T00:50:57;1.45;;;1.35;;
60368;SDS011;46208;44.634;10.492;2023-01-10T00:54:00;0.65;;;0.65;;
60368;SDS011;46208;44.634;10.492;2023-01-10T00:57:03;0.25;;;0.25;;
60368;SDS011;46208;44.634;10.492;2023-01-10T01:00:07;0.28;;;0.28;;
60368;SDS011;46208;44.634;10.492;2023-01-10T01:03:12;0.70;;;0.70;;
60368;SDS011;46208;44.634;10.492;2023-01-10T01:06:15;0.40;;;0.40;;
60368;SDS011;46208;44.634;10.492;2023-01-10T01:09:18;0.30;;;0.30;;
60368;SDS011;46208;44.634;10.492;2023-01-10T01:12:22;0.40;;;0.40;;
60368;SDS011;46208;44.634;10.492;2023-01-10T01:15:25;0.20;;;0.20;;
60368;SDS011;46208;44.634;10.492;2023-01-10T01:18:29;0.30;;;0.30;;
60368;SDS011;46208;44.634;10.492;2023-01-10T01:21:32;0.77;;;0.38;;
60368;SDS011;46208;44.634;10.492;2023-01-10T01:24:36;0.20;;;0.20;;
60368;SDS011;46208;44.634;10.492;2023-01-10T01:27:39;0.73;;;0.63;;
60368;SDS011;46208;44.634;10.492;2023-01-10T01:30:43;0.25;;;0.25;;
60368;SDS011;46208;44.634;10.492;2023-01-10T01:33:46;0.30;;;0.30;;
60368;SDS011;46208;44.634;10.492;2023-01-10T01:36:50;0.50;;;0.50;;
60368;SDS011;46208;44.634;10.492;2023-01-10T01:39:53;0.22;;;0.22;;
60368;SDS011;46208;44.634;10.492;2023-01-10T01:42:56;0.98;;;0.52;;
60368;SDS011;46208;44.634;10.492;2023-01-10T01:46:00;0.32;;;0.32;;
60368;SDS011;46208;44.634;10.492;2023-01-10T01:49:04;0.20;;;0.20;;
60368;SDS011;46208;44.634;10.492;2023-01-10T01:52:22;0.90;;;0.63;;
60368;SDS011;46208;44.634;10.492;2023-01-10T01:55:27;3.92;;;0.60;;
60368;SDS011;46208;44.634;10.492;2023-01-10T01:58:38;0.30;;;0.30;;
60368;SDS011;46208;44.634;10.492;2023-01-10T02:01:43;0.20;;;0.20;;
60368;SDS011;46208;44.634;10.492;2023-01-10T02:04:48;0.20;;;0.20;;
60368;SDS011;46208;44.634;10.492;2023-01-10T02:07:54;0.20;;;0.20;;
60368;SDS011;46208;44.634;10.492;2023-01-10T02:11:04;0.20;;;0.20;;
60368;SDS011;46208;44.634;10.492;2023-01-10T02:14:10;0.30;;;0.30;;
60368;SDS011;46208;44.634;10.492;2023-01-10T02:17:14;0.25;;;0.25;;
60368;SDS011;46208;44.634;10.492;2023-01-10T02:20:18;0.20;;;0.20;;
60368;SDS011;46208;44.634;10.492;2023-01-10T02:23:50;0.20;;;0.20;;
60368;SDS011;46208;44.634;10.492;2023-01-10T02:33:09;0.20;;;0.20;;
60368;SDS011;46208;44.634;10.492;2023-01-10T02:48:53;0.20;;;0.20;;
60368;SDS011;46208;44.634;10.492;2023-01-10T02:51:57;0.20;;;0.20;;
60368;SDS011;46208;44.634;10.492;2023-01-10T02:55:00;0.20;;;0.20;;
60368;SDS011;46208;44.634;10.492;2023-01-10T02:58:08;0.73;;;0.73;;
60368;SDS011;46208;44.634;10.492;2023-01-10T03:01:20;0.30;;;0.30;;
60368;SDS011;46208;44.634;10.492;2023-01-10T03:10:55;0.30;;;0.30;;
60368;SDS011;46208;44.634;10.492;2023-01-10T03:14:00;0.22;;;0.22;;
60368;SDS011;46208;44.634;10.492;2023-01-10T03:17:05;0.20;;;0.20;;
60368;SDS011;46208;44.634;10.492;2023-01-10T03:20:10;0.40;;;0.40;;
60368;SDS011;46208;44.634;10.492;2023-01-10T03:23:14;0.20;;;0.20;;
60368;SDS011;46208;44.634;10.492;2023-01-10T03:26:18;0.20;;;0.20;;
60368;SDS011;46208;44.634;10.492;2023-01-10T03:29:28;0.20;;;0.20;;
60368;SDS011;46208;44.634;10.492;2023-01-10T03:32:33;0.20;;;0.20;;
60368;SDS011;46208;44.634;10.492;2023-01-10T03:38:49;0.20;;;0.20;;
60368;SDS011;46208;44.634;10.492;2023-01-10T03:42:03;0.20;;;0.20;;
60368;SDS011;46208;44.634;10.492;2023-01-10T03:45:08;0.30;;;0.30;;
60368;SDS011;46208;44.634;10.492;2023-01-10T03:48:16;0.20;;;0.20;;
60368;SDS011;46208;44.634;10.492;2023-01-10T03:51:20;0.20;;;0.20;;
60368;SDS011;46208;44.634;10.492;2023-01-10T03:54:23;0.30;;;0.30;;
60368;SDS011;46208;44.634;10.492;2023-01-10T03:57:27;0.20;;;0.20;;
60368;SDS011;46208;44.634;10.492;2023-01-10T04:00:30;0.20;;;0.20;;
60368;SDS011;46208;44.634;10.492;2023-01-10T04:03:34;0.20;;;0.20;;
60368;SDS011;46208;44.634;10.492;2023-01-10T04:06:37;0.20;;;0.20;;
60368;SDS011;46208;44.634;10.492;2023-01-10T04:09:40;0.20;;;0.20;;
60368;SDS011;46208;44.634;10.492;2023-01-10T04:12:44;0.20;;;0.20;;
60368;SDS011;46208;44.634;10.492;2023-01-10T04:15:47;0.20;;;0.20;;
60368;SDS011;46208;44.634;10.492;2023-01-10T04:18:51;0.20;;;0.20;;
60368;SDS011;46208;44.634;10.492;2023-01-10T04:21:54;0.20;;;0.20;;
60368;SDS011;46208;44.634;10.492;2023-01-10T04:24:57;0.20;;;0.20;;
60368;SDS011;46208;44.634;10.492;2023-01-10T04:28:00;0.20;;;0.20;;
60368;SDS011;46208;44.634;10.492;2023-01-10T04:31:03;0.20;;;0.20;;
60368;SDS011;46208;44.634;10.492;2023-01-10T04:34:07;0.20;;;0.20;;
60368;SDS011;46208;44.634;10.492;2023-01-10T04:37:11;0.20;;;0.20;;
60368;SDS011;46208;44.634;10.492;2023-01-10T04:40:14;0.20;;;0.20;;
60368;SDS011;46208;44.634;10.492;2023-01-10T04:43:21;0.30;;;0.30;;
60368;SDS011;46208;44.634;10.492;2023-01-10T04:46:25;0.30;;;0.30;;
60368;SDS011;46208;44.634;10.492;2023-01-10T04:49:29;0.20;;;0.20;;
60368;SDS011;46208;44.634;10.492;2023-01-10T04:52:33;0.20;;;0.20;;
60368;SDS011;46208;44.634;10.492;2023-01-10T04:55:36;0.20;;;0.20;;
60368;SDS011;46208;44.634;10.492;2023-01-10T04:58:39;0.20;;;0.20;;
60368;SDS011;46208;44.634;10.492;2023-01-10T05:01:42;0.20;;;0.20;;
60368;SDS011;46208;44.634;10.492;2023-01-10T05:04:45;0.20;;;0.20;;
60368;SDS011;46208;44.634;10.492;2023-01-10T05:07:48;0.20;;;0.20;;
60368;SDS011;46208;44.634;10.492;2023-01-10T05:10:52;0.20;;;0.20;;
60368;SDS011;46208;44.634;10.492;2023-01-10T05:13:55;0.20;;;0.20;;
60368;SDS011;46208;44.634;10.492;2023-01-10T05:16:58;0.20;;;0.20;;
60368;SDS011;46208;44.634;10.492;2023-01-10T05:20:01;0.20;;;0.20;;
60368;SDS011;46208;44.634;10.492;2023-01-10T05:23:05;0.20;;;0.20;;
60368;SDS011;46208;44.634;10.492;2023-01-10T05:26:09;0.50;;;0.50;;
60368;SDS011;46208;44.634;10.492;2023-01-10T05:29:12;0.38;;;0.28;;
60368;SDS011;46208;44.634;10.492;2023-01-10T05:32:19;0.20;;;0.20;;
60368;SDS011;46208;44.634;10.492;2023-01-10T05:35:22;0.20;;;0.20;;
60368;SDS011;46208;44.634;10.492;2023-01-10T05:38:25;0.20;;;0.20;;
60368;SDS011;46208;44.634;10.492;2023-01-10T05:41:28;0.20;;;0.20;;
60368;SDS011;46208;44.634;10.492;2023-01-10T05:44:31;0.20;;;0.20;;
60368;SDS011;46208;44.634;10.492;2023-01-10T05:47:35;0.20;;;0.20;;
60368;SDS011;46208;44.634;10.492;2023-01-10T05:50:38;0.20;;;0.20;;
60368;SDS011;46208;44.634;10.492;2023-01-10T05:53:41;0.17;;;0.17;;
60368;SDS011;46208;44.634;10.492;2023-01-10T05:56:45;0.20;;;0.20;;
60368;SDS011;46208;44.634;10.492;2023-01-10T05:59:48;0.30;;;0.30;;
60368;SDS011;46208;44.634;10.492;2023-01-10T06:02:55;0.20;;;0.20;;
60368;SDS011;46208;44.634;10.492;2023-01-10T06:05:58;0.30;;;0.30;;
60368;SDS011;46208;44.634;10.492;2023-01-10T06:09:01;0.20;;;0.20;;
60368;SDS011;46208;44.634;10.492;2023-01-10T06:12:05;1.65;;;0.20;;
60368;SDS011;46208;44.634;10.492;2023-01-10T06:15:08;0.20;;;0.20;;
60368;SDS011;46208;44.634;10.492;2023-01-10T06:18:11;0.30;;;0.30;;
60368;SDS011;46208;44.634;10.492;2023-01-10T06:21:15;0.20;;;0.20;;
60368;SDS011;46208;44.634;10.492;2023-01-10T06:24:19;0.20;;;0.20;;
60368;SDS011;46208;44.634;10.492;2023-01-10T06:27:22;0.10;;;0.10;;
60368;SDS011;46208;44.634;10.492;2023-01-10T06:30:25;0.30;;;0.30;;
60368;SDS011;46208;44.634;10.492;2023-01-10T06:33:28;0.20;;;0.20;;
60368;SDS011;46208;44.634;10.492;2023-01-10T06:36:31;0.20;;;0.20;;
60368;SDS011;46208;44.634;10.492;2023-01-10T06:39:34;0.20;;;0.20;;
60368;SDS011;46208;44.634;10.492;2023-01-10T06:42:38;0.20;;;0.20;;
60368;SDS011;46208;44.634;10.492;2023-01-10T06:45:42;0.20;;;0.20;;
60368;SDS011;46208;44.634;10.492;2023-01-10T06:48:46;0.20;;;0.20;;
60368;SDS011;46208;44.634;10.492;2023-01-10T06:51:49;0.20;;;0.20;;
60368;SDS011;46208;44.634;10.492;2023-01-10T06:54:52;0.20;;;0.20;;
60368;SDS011;46208;44.634;10.492;2023-01-10T06:57:56;0.20;;;0.20;;
60368;SDS011;46208;44.634;10.492;2023-01-10T07:00:59;0.32;;;0.32;;
60368;SDS011;46208;44.634;10.492;2023-01-10T07:04:02;1.27;;;0.65;;
60368;SDS011;46208;44.634;10.492;2023-01-10T07:07:05;0.20;;;0.20;;
60368;SDS011;46208;44.634;10.492;2023-01-10T07:10:09;0.20;;;0.20;;
60368;SDS011;46208;44.634;10.492;2023-01-10T07:13:12;0.20;;;0.20;;
60368;SDS011;46208;44.634;10.492;2023-01-10T07:16:15;0.20;;;0.20;;
60368;SDS011;46208;44.634;10.492;2023-01-10T07:19:18;0.40;;;0.22;;
60368;SDS011;46208;44.634;10.492;2023-01-10T07:22:22;0.20;;;0.20;;
60368;SDS011;46208;44.634;10.492;2023-01-10T07:25:26;0.20;;;0.20;;
60368;SDS011;46208;44.634;10.492;2023-01-10T07:28:30;0.55;;;0.45;;
60368;SDS011;46208;44.634;10.492;2023-01-10T07:31:33;0.20;;;0.20;;
60368;SDS011;46208;44.634;10.492;2023-01-10T07:34:36;0.20;;;0.20;;
60368;SDS011;46208;44.634;10.492;2023-01-10T07:37:39;0.52;;;0.20;;
60368;SDS011;46208;44.634;10.492;2023-01-10T07:40:43;0.20;;;0.20;;
60368;SDS011;46208;44.634;10.492;2023-01-10T07:43:46;0.20;;;0.20;;
60368;SDS011;46208;44.634;10.492;2023-01-10T07:46:50;0.20;;;0.20;;
60368;SDS011;46208;44.634;10.492;2023-01-10T07:49:53;0.20;;;0.20;;
60368;SDS011;46208;44.634;10.492;2023-01-10T07:53:00;0.17;;;0.17;;
60368;SDS011;46208;44.634;10.492;2023-01-10T07:56:04;0.20;;;0.20;;
60368;SDS011;46208;44.634;10.492;2023-01-10T07:59:08;0.30;;;0.30;;
60368;SDS011;46208;44.634;10.492;2023-01-10T08:02:11;0.20;;;0.20;;
60368;SDS011;46208;44.634;10.492;2023-01-10T08:05:14;0.20;;;0.20;;
60368;SDS011;46208;44.634;10.492;2023-01-10T08:08:18;0.20;;;0.20;;
60368;SDS011;46208;44.634;10.492;2023-01-10T08:11:21;0.20;;;0.20;;
60368;SDS011;46208;44.634;10.492;2023-01-10T08:14:24;0.20;;;0.20;;
60368;SDS011;46208;44.634;10.492;2023-01-10T08:17:28;0.20;;;0.20;;
60368;SDS011;46208;44.634;10.492;2023-01-10T08:20:31;0.20;;;0.20;;
60368;SDS011;46208;44.634;10.492;2023-01-10T08:23:34;0.20;;;0.20;;
60368;SDS011;46208;44.634;10.492;2023-01-10T08:26:38;0.20;;;0.20;;
60368;SDS011;46208;44.634;10.492;2023-01-10T08:29:41;0.15;;;0.15;;
60368;SDS011;46208;44.634;10.492;2023-01-10T08:32:44;0.20;;;0.20;;
60368;SDS011;46208;44.634;10.492;2023-01-10T08:35:48;0.20;;;0.20;;
60368;SDS011;46208;44.634;10.492;2023-01-10T08:38:53;0.20;;;0.20;;
60368;SDS011;46208;44.634;10.492;2023-01-10T08:41:56;0.20;;;0.20;;
60368;SDS011;46208;44.634;10.492;2023-01-10T08:45:00;0.10;;;0.10;;
60368;SDS011;46208;44.634;10.492;2023-01-10T08:48:04;0.20;;;0.20;;
60368;SDS011;46208;44.634;10.492;2023-01-10T08:51:08;0.17;;;0.17;;
60368;SDS011;46208;44.634;10.492;2023-01-10T08:54:11;0.88;;;0.52;;
60368;SDS011;46208;44.634;10.492;2023-01-10T08:57:14;0.55;;;0.55;;
60368;SDS011;46208;44.634;10.492;2023-01-10T09:00:18;0.52;;;0.40;;
60368;SDS011;46208;44.634;10.492;2023-01-10T09:03:21;1.73;;;1.55;;
60368;SDS011;46208;44.634;10.492;2023-01-10T09:06:25;0.45;;;0.45;;
60368;SDS011;46208;44.634;10.492;2023-01-10T09:09:29;0.40;;;0.38;;
60368;SDS011;46208;44.634;10.492;2023-01-10T09:12:32;0.20;;;0.20;;
60368;SDS011;46208;44.634;10.492;2023-01-10T09:15:54;0.20;;;0.20;;
60368;SDS011;46208;44.634;10.492;2023-01-10T09:18:58;0.20;;;0.20;;
60368;SDS011;46208;44.634;10.492;2023-01-10T09:22:01;0.17;;;0.17;;
60368;SDS011;46208;44.634;10.492;2023-01-10T09:25:05;0.17;;;0.17;;
60368;SDS011;46208;44.634;10.492;2023-01-10T09:28:08;0.20;;;0.20;;
60368;SDS011;46208;44.634;10.492;2023-01-10T09:31:11;0.20;;;0.20;;
60368;SDS011;46208;44.634;10.492;2023-01-10T09:34:14;0.20;;;0.20;;
60368;SDS011;46208;44.634;10.492;2023-01-10T09:37:17;0.20;;;0.20;;
60368;SDS011;46208;44.634;10.492;2023-01-10T09:43:53;0.20;;;0.20;;
60368;SDS011;46208;44.634;10.492;2023-01-10T09:50:18;2.25;;;0.63;;
60368;SDS011;46208;44.634;10.492;2023-01-10T09:53:23;0.95;;;0.77;;
60368;SDS011;46208;44.634;10.492;2023-01-10T09:56:29;0.65;;;0.65;;
60368;SDS011;46208;44.634;10.492;2023-01-10T09:59:37;0.40;;;0.40;;
60368;SDS011;46208;44.634;10.492;2023-01-10T10:02:41;0.30;;;0.30;;
60368;SDS011;46208;44.634;10.492;2023-01-10T10:05:47;0.80;;;0.80;;
60368;SDS011;46208;44.634;10.492;2023-01-10T10:08:51;0.10;;;0.10;;
60368;SDS011;46208;44.634;10.492;2023-01-10T10:21:20;0.25;;;0.22;;
60368;SDS011;46208;44.634;10.492;2023-01-10T10:30:55;2.30;;;0.77;;
60368;SDS011;46208;44.634;10.492;2023-01-10T10:40:27;0.28;;;0.28;;
60368;SDS011;46208;44.634;10.492;2023-01-10T10:43:34;0.63;;;0.63;;
60368;SDS011;46208;44.634;10.492;2023-01-10T10:46:40;0.10;;;0.10;;
60368;SDS011;46208;44.634;10.492;2023-01-10T10:53:07;0.40;;;0.40;;
60368;SDS011;46208;44.634;10.492;2023-01-10T10:56:12;0.50;;;0.50;;
60368;SDS011;46208;44.634;10.492;2023-01-10T10:59:17;0.90;;;0.45;;
60368;SDS011;46208;44.634;10.492;2023-01-10T11:02:28;0.20;;;0.20;;
60368;SDS011;46208;44.634;10.492;2023-01-10T11:05:42;0.20;;;0.20;;
60368;SDS011;46208;44.634;10.492;2023-01-10T11:08:47;0.13;;;0.13;;
60368;SDS011;46208;44.634;10.492;2023-01-10T11:11:51;0.20;;;0.20;;
60368;SDS011;46208;44.634;10.492;2023-01-10T11:14:57;0.20;;;0.20;;
60368;SDS011;46208;44.634;10.492;2023-01-10T11:18:06;0.30;;;0.30;;
60368;SDS011;46208;44.634;10.492;2023-01-10T11:21:13;0.30;;;0.30;;
60368;SDS011;46208;44.634;10.492;2023-01-10T11:27:36;0.20;;;0.20;;
60368;SDS011;46208;44.634;10.492;2023-01-10T11:30:45;0.13;;;0.13;;
60368;SDS011;46208;44.634;10.492;2023-01-10T11:33:50;0.10;;;0.10;;
60368;SDS011;46208;44.634;10.492;2023-01-10T11:43:37;0.50;;;0.20;;
60368;SDS011;46208;44.634;10.492;2023-01-10T11:46:44;0.20;;;0.20;;
60368;SDS011;46208;44.634;10.492;2023-01-10T11:49:48;0.20;;;0.20;;
60368;SDS011;46208;44.634;10.492;2023-01-10T11:52:52;0.13;;;0.13;;
60368;SDS011;46208;44.634;10.492;2023-01-10T11:55:55;0.20;;;0.20;;
60368;SDS011;46208;44.634;10.492;2023-01-10T11:58:59;0.20;;;0.20;;
60368;SDS011;46208;44.634;10.492;2023-01-10T12:02:16;0.13;;;0.13;;
60368;SDS011;46208;44.634;10.492;2023-01-10T12:05:21;0.20;;;0.20;;
60368;SDS011;46208;44.634;10.492;2023-01-10T12:08:26;0.20;;;0.20;;
60368;SDS011;46208;44.634;10.492;2023-01-10T12:11:31;0.20;;;0.20;;
60368;SDS011;46208;44.634;10.492;2023-01-10T12:14:35;1.95;;;0.43;;
60368;SDS011;46208;44.634;10.492;2023-01-10T12:17:39;0.43;;;0.43;;
60368;SDS011;46208;44.634;10.492;2023-01-10T12:20:46;0.20;;;0.20;;
60368;SDS011;46208;44.634;10.492;2023-01-10T12:23:50;0.10;;;0.10;;
60368;SDS011;46208;44.634;10.492;2023-01-10T12:26:54;0.15;;;0.15;;
60368;SDS011;46208;44.634;10.492;2023-01-10T12:33:05;0.10;;;0.10;;
60368;SDS011;46208;44.634;10.492;2023-01-10T12:36:31;0.30;;;0.30;;
60368;SDS011;46208;44.634;10.492;2023-01-10T12:39:38;0.20;;;0.20;;
60368;SDS011;46208;44.634;10.492;2023-01-10T12:42:50;0.20;;;0.20;;
60368;SDS011;46208;44.634;10.492;2023-01-10T12:46:21;0.38;;;0.38;;
60368;SDS011;46208;44.634;10.492;2023-01-10T12:49:30;0.25;;;0.25;;
60368;SDS011;46208;44.634;10.492;2023-01-10T12:52:52;0.32;;;0.30;;
60368;SDS011;46208;44.634;10.492;2023-01-10T12:55:59;0.35;;;0.35;;
60368;SDS011;46208;44.634;10.492;2023-01-10T12:59:26;2.22;;;1.98;;
60368;SDS011;46208;44.634;10.492;2023-01-10T13:02:38;3.25;;;2.20;;
60368;SDS011;46208;44.634;10.492;2023-01-10T13:05:42;6.50;;;3.28;;
60368;SDS011;46208;44.634;10.492;2023-01-10T13:08:47;5.63;;;3.17;;
60368;SDS011;46208;44.634;10.492;2023-01-10T13:18:04;1.23;;;0.85;;
60368;SDS011;46208;44.634;10.492;2023-01-10T13:21:17;2.00;;;0.45;;
60368;SDS011;46208;44.634;10.492;2023-01-10T13:24:22;0.80;;;0.50;;
60368;SDS011;46208;44.634;10.492;2023-01-10T13:27:32;1.48;;;0.50;;
60368;SDS011;46208;44.634;10.492;2023-01-10T13:30:37;0.22;;;0.22;;
60368;SDS011;46208;44.634;10.492;2023-01-10T13:33:53;0.15;;;0.15;;
60368;SDS011;46208;44.634;10.492;2023-01-10T13:36:58;1.02;;;0.70;;
60368;SDS011;46208;44.634;10.492;2023-01-10T13:40:03;0.75;;;0.75;;
60368;SDS011;46208;44.634;10.492;2023-01-10T13:46:36;0.20;;;0.20;;
60368;SDS011;46208;44.634;10.492;2023-01-10T13:49:41;0.20;;;0.20;;
60368;SDS011;46208;44.634;10.492;2023-01-10T13:52:45;0.20;;;0.20;;
60368;SDS011;46208;44.634;10.492;2023-01-10T13:55:49;0.17;;;0.17;;
60368;SDS011;46208;44.634;10.492;2023-01-10T14:02:22;0.20;;;0.20;;
60368;SDS011;46208;44.634;10.492;2023-01-10T14:05:35;0.52;;;0.52;;
60368;SDS011;46208;44.634;10.492;2023-01-10T14:08:38;0.32;;;0.32;;
60368;SDS011;46208;44.634;10.492;2023-01-10T14:14:52;0.10;;;0.10;;
60368;SDS011;46208;44.634;10.492;2023-01-10T14:21:06;0.20;;;0.20;;
60368;SDS011;46208;44.634;10.492;2023-01-10T14:24:27;0.10;;;0.10;;
60368;SDS011;46208;44.634;10.492;2023-01-10T14:27:34;0.80;;;0.35;;
60368;SDS011;46208;44.634;10.492;2023-01-10T14:30:38;0.50;;;0.50;;
60368;SDS011;46208;44.634;10.492;2023-01-10T14:33:43;0.38;;;0.30;;
60368;SDS011;46208;44.634;10.492;2023-01-10T14:39:56;0.30;;;0.30;;
60368;SDS011;46208;44.634;10.492;2023-01-10T14:43:01;0.30;;;0.30;;
60368;SDS011;46208;44.634;10.492;2023-01-10T14:46:19;0.38;;;0.38;;
60368;SDS011;46208;44.634;10.492;2023-01-10T14:49:35;0.30;;;0.30;;
60368;SDS011;46208;44.634;10.492;2023-01-10T14:52:40;0.20;;;0.20;;
60368;SDS011;46208;44.634;10.492;2023-01-10T14:55:44;0.43;;;0.30;;
60368;SDS011;46208;44.634;10.492;2023-01-10T14:58:47;0.30;;;0.30;;
60368;SDS011;46208;44.634;10.492;2023-01-10T15:01:55;0.38;;;0.38;;
60368;SDS011;46208;44.634;10.492;2023-01-10T15:05:06;1.45;;;0.50;;
60368;SDS011;46208;44.634;10.492;2023-01-10T15:11:26;0.40;;;0.40;;
60368;SDS011;46208;44.634;10.492;2023-01-10T15:14:32;0.30;;;0.30;;
60368;SDS011;46208;44.634;10.492;2023-01-10T15:17:37;0.28;;;0.28;;
60368;SDS011;46208;44.634;10.492;2023-01-10T15:20:41;0.95;;;0.60;;
60368;SDS011;46208;44.634;10.492;2023-01-10T15:23:45;0.50;;;0.50;;
60368;SDS011;46208;44.634;10.492;2023-01-10T15:26:50;0.20;;;0.20;;
60368;SDS011;46208;44.634;10.492;2023-01-10T15:29:53;0.38;;;0.38;;
60368;SDS011;46208;44.634;10.492;2023-01-10T15:33:04;1.70;;;1.10;;
60368;SDS011;46208;44.634;10.492;2023-01-10T15:36:11;0.38;;;0.38;;
60368;SDS011;46208;44.634;10.492;2023-01-10T15:39:20;0.20;;;0.20;;
60368;SDS011;46208;44.634;10.492;2023-01-10T15:42:24;0.20;;;0.20;;
60368;SDS011;46208;44.634;10.492;2023-01-10T15:45:28;0.30;;;0.30;;
60368;SDS011;46208;44.634;10.492;2023-01-10T15:48:40;0.20;;;0.20;;
60368;SDS011;46208;44.634;10.492;2023-01-10T15:51:46;0.20;;;0.20;;
60368;SDS011;46208;44.634;10.492;2023-01-10T15:54:49;0.20;;;0.20;;
60368;SDS011;46208;44.634;10.492;2023-01-10T15:57:54;0.20;;;0.20;;
60368;SDS011;46208;44.634;10.492;2023-01-10T16:00:57;0.57;;;0.50;;
60368;SDS011;46208;44.634;10.492;2023-01-10T16:04:02;0.20;;;0.20;;
60368;SDS011;46208;44.634;10.492;2023-01-10T16:10:29;0.28;;;0.28;;
60368;SDS011;46208;44.634;10.492;2023-01-10T16:13:38;0.20;;;0.20;;
60368;SDS011;46208;44.634;10.492;2023-01-10T16:16:43;0.13;;;0.13;;
60368;SDS011;46208;44.634;10.492;2023-01-10T16:19:47;0.20;;;0.20;;
60368;SDS011;46208;44.634;10.492;2023-01-10T16:22:52;0.30;;;0.30;;
60368;SDS011;46208;44.634;10.492;2023-01-10T16:25:57;0.30;;;0.30;;
60368;SDS011;46208;44.634;10.492;2023-01-10T16:29:00;0.50;;;0.28;;
60368;SDS011;46208;44.634;10.492;2023-01-10T16:32:09;0.20;;;0.15;;
60368;SDS011;46208;44.634;10.492;2023-01-10T16:35:15;0.20;;;0.20;;
60368;SDS011;46208;44.634;10.492;2023-01-10T16:38:19;0.20;;;0.20;;
60368;SDS011;46208;44.634;10.492;2023-01-10T16:41:22;0.20;;;0.20;;
60368;SDS011;46208;44.634;10.492;2023-01-10T16:44:44;0.50;;;0.50;;
60368;SDS011;46208;44.634;10.492;2023-01-10T16:47:48;0.20;;;0.20;;
60368;SDS011;46208;44.634;10.492;2023-01-10T16:50:51;0.20;;;0.20;;
60368;SDS011;46208;44.634;10.492;2023-01-10T16:53:54;0.30;;;0.30;;
60368;SDS011;46208;44.634;10.492;2023-01-10T16:56:57;0.20;;;0.20;;
60368;SDS011;46208;44.634;10.492;2023-01-10T17:00:01;0.75;;;0.20;;
60368;SDS011;46208;44.634;10.492;2023-01-10T17:03:05;0.25;;;0.25;;
60368;SDS011;46208;44.634;10.492;2023-01-10T17:06:10;0.20;;;0.20;;
60368;SDS011;46208;44.634;10.492;2023-01-10T17:09:17;0.40;;;0.40;;
60368;SDS011;46208;44.634;10.492;2023-01-10T17:15:25;1.95;;;0.82;;
60368;SDS011;46208;44.634;10.492;2023-01-10T17:18:29;0.10;;;0.10;;
60368;SDS011;46208;44.634;10.492;2023-01-10T17:21:32;0.20;;;0.20;;
60368;SDS011;46208;44.634;10.492;2023-01-10T17:24:36;0.20;;;0.20;;
60368;SDS011;46208;44.634;10.492;2023-01-10T17:27:39;0.90;;;0.50;;
60368;SDS011;46208;44.634;10.492;2023-01-10T17:30:42;0.28;;;0.28;;
60368;SDS011;46208;44.634;10.492;2023-01-10T17:33:46;0.20;;;0.20;;
60368;SDS011;46208;44.634;10.492;2023-01-10T17:36:50;0.20;;;0.20;;
60368;SDS011;46208;44.634;10.492;2023-01-10T17:39:54;0.20;;;0.20;;
60368;SDS011;46208;44.634;10.492;2023-01-10T17:42:57;0.20;;;0.20;;
60368;SDS011;46208;44.634;10.492;2023-01-10T17:46:01;0.82;;;0.80;;
60368;SDS011;46208;44.634;10.492;2023-01-10T17:49:07;0.20;;;0.20;;
60368;SDS011;46208;44.634;10.492;2023-01-10T17:52:10;0.30;;;0.30;;
60368;SDS011;46208;44.634;10.492;2023-01-10T17:55:14;0.30;;;0.30;;
60368;SDS011;46208;44.634;10.492;2023-01-10T17:58:17;0.15;;;0.15;;
60368;SDS011;46208;44.634;10.492;2023-01-10T18:01:22;0.20;;;0.20;;
60368;SDS011;46208;44.634;10.492;2023-01-10T18:04:26;0.65;;;0.50;;
60368;SDS011;46208;44.634;10.492;2023-01-10T18:07:29;0.20;;;0.20;;
60368;SDS011;46208;44.634;10.492;2023-01-10T18:10:32;0.63;;;0.28;;
60368;SDS011;46208;44.634;10.492;2023-01-10T18:13:35;0.22;;;0.20;;
60368;SDS011;46208;44.634;10.492;2023-01-10T18:16:38;0.85;;;0.20;;
60368;SDS011;46208;44.634;10.492;2023-01-10T18:19:42;0.20;;;0.20;;
60368;SDS011;46208;44.634;10.492;2023-01-10T18:22:45;0.20;;;0.20;;
60368;SDS011;46208;44.634;10.492;2023-01-10T18:26:09;0.52;;;0.30;;
60368;SDS011;46208;44.634;10.492;2023-01-10T18:29:12;0.10;;;0.10;;
60368;SDS011;46208;44.634;10.492;2023-01-10T18:32:16;0.20;;;0.20;;
60368;SDS011;46208;44.634;10.492;2023-01-10T18:35:20;0.20;;;0.20;;
60368;SDS011;46208;44.634;10.492;2023-01-10T18:38:24;0.10;;;0.10;;
60368;SDS011;46208;44.634;10.492;2023-01-10T18:41:28;0.20;;;0.20;;
60368;SDS011;46208;44.634;10.492;2023-01-10T18:44:31;0.20;;;0.20;;
60368;SDS011;46208;44.634;10.492;2023-01-10T18:47:35;0.10;;;0.10;;
60368;SDS011;46208;44.634;10.492;2023-01-10T18:50:38;0.45;;;0.20;;
60368;SDS011;46208;44.634;10.492;2023-01-10T18:53:42;0.20;;;0.20;;
60368;SDS011;46208;44.634;10.492;2023-01-10T18:56:45;0.30;;;0.30;;
60368;SDS011;46208;44.634;10.492;2023-01-10T18:59:49;0.55;;;0.30;;
60368;SDS011;46208;44.634;10.492;2023-01-10T19:02:52;0.20;;;0.20;;
60368;SDS011;46208;44.634;10.492;2023-01-10T19:05:58;0.65;;;0.25;;
60368;SDS011;46208;44.634;10.492;2023-01-10T19:09:01;0.20;;;0.20;;
60368;SDS011;46208;44.634;10.492;2023-01-10T19:12:04;0.47;;;0.43;;
60368;SDS011;46208;44.634;10.492;2023-01-10T19:15:08;0.20;;;0.20;;
60368;SDS011;46208;44.634;10.492;2023-01-10T19:18:15;0.30;;;0.30;;
60368;SDS011;46208;44.634;10.492;2023-01-10T19:21:20;0.20;;;0.20;;
60368;SDS011;46208;44.634;10.492;2023-01-10T19:24:24;0.20;;;0.20;;
60368;SDS011;46208;44.634;10.492;2023-01-10T19:27:29;0.20;;;0.20;;
60368;SDS011;46208;44.634;10.492;2023-01-10T19:30:32;0.20;;;0.20;;
60368;SDS011;46208;44.634;10.492;2023-01-10T19:33:36;0.30;;;0.30;;
60368;SDS011;46208;44.634;10.492;2023-01-10T19:36:39;0.10;;;0.10;;
60368;SDS011;46208;44.634;10.492;2023-01-10T19:39:43;0.17;;;0.17;;
60368;SDS011;46208;44.634;10.492;2023-01-10T19:42:46;0.20;;;0.20;;
60368;SDS011;46208;44.634;10.492;2023-01-10T19:45:50;0.30;;;0.30;;
60368;SDS011;46208;44.634;10.492;2023-01-10T19:48:54;0.20;;;0.20;;
60368;SDS011;46208;44.634;10.492;2023-01-10T19:51:57;0.20;;;0.20;;
60368;SDS011;46208;44.634;10.492;2023-01-10T19:55:01;0.20;;;0.20;;
60368;SDS011;46208;44.634;10.492;2023-01-10T19:58:05;1.05;;;0.50;;
60368;SDS011;46208;44.634;10.492;2023-01-10T20:01:09;0.28;;;0.28;;
60368;SDS011;46208;44.634;10.492;2023-01-10T20:04:12;0.30;;;0.30;;